Terminal Aerodrome Forecast
Issued by NWS

Home | Current Version | Previous Version | Text Only | Print | Product List | Glossary On
Versions: 1 2 3 4 5 6 7 8 9 10 11 12 13
000
FTUS45 KGJT 250543
TAFVEL
TAF
KVEL 250543Z 2506/2606 33004KT P6SM FEW250
     FM251000 34008KT P6SM FEW250
     FM251400 36004KT P6SM SCT250
     FM251700 13004KT P6SM SCT150
     FM251900 20005KT P6SM VCTS BKN150CB
     FM260000 02007KT P6SM VCTS BKN150CB=

USA.gov is the U.S. government's official web portal to all federal, state and local government web resources and services.